Time;durP1;ratioP1;P1;durP2;ratioP2;P2;SDS_P1;SDS_P2;PMS_P1;PMS_P2;Temp;Humidity;BMP_temperature;BMP_pressure;BME280_temperature;BME280_humidity;BME280_pressure;Samples;Min_cycle;Max_cycle;Signal;HPM_P1;HPM_P2
2022/11/26 00:00:26;;;;;;;14.33;7.10;;;6.50;99.90;;;;;;5031213;28;21015;-68
2022/11/26 00:02:53;;;;;;;12.53;6.07;;;6.50;99.90;;;;;;5042080;28;20456;-68
2022/11/26 00:05:19;;;;;;;8.27;5.00;;;6.50;99.90;;;;;;5040896;28;20170;-68
2022/11/26 00:07:57;;;;;;;9.63;5.40;;;6.50;99.90;;;;;;5030211;28;20447;-68
2022/11/26 00:10:29;;;;;;;11.40;6.07;;;6.60;99.90;;;;;;5033737;28;20463;-67
2022/11/26 00:12:56;;;;;;;9.83;5.77;;;6.60;99.90;;;;;;5043862;28;20463;-67
2022/11/26 00:15:24;;;;;;;11.00;5.70;;;6.60;99.90;;;;;;5036857;28;20974;-67
2022/11/26 00:17:51;;;;;;;9.57;5.20;;;6.60;99.90;;;;;;5033049;28;20438;-67
2022/11/26 00:20:19;;;;;;;6.53;4.53;;;6.60;99.90;;;;;;4987315;28;20443;-68
2022/11/26 00:22:53;;;;;;;12.17;5.50;;;6.60;99.90;;;;;;4992723;28;21039;-67
2022/11/26 00:25:24;;;;;;;7.93;5.50;;;6.60;99.90;;;;;;5000332;28;20437;-67
2022/11/26 00:27:53;;;;;;;7.87;4.43;;;6.60;99.90;;;;;;4984987;28;20468;-67
2022/11/26 00:30:21;;;;;;;6.60;3.90;;;6.60;99.90;;;;;;4996495;28;20532;-67
2022/11/26 00:32:47;;;;;;;5.77;3.83;;;6.60;99.90;;;;;;4987062;28;20459;-67
2022/11/26 00:35:14;;;;;;;6.63;4.73;;;6.70;99.90;;;;;;4987439;28;20913;-67
2022/11/26 00:38:00;;;;;;;6.53;4.00;;;6.70;99.90;;;;;;4987851;28;20531;-67
2022/11/26 00:40:31;;;;;;;9.37;4.53;;;6.70;99.90;;;;;;4986740;28;20530;-68
2022/11/26 00:42:56;;;;;;;9.80;4.00;;;6.70;99.90;;;;;;4987337;28;20458;-67
2022/11/26 00:45:26;;;;;;;8.33;4.20;;;6.70;99.90;;;;;;4991787;28;20994;-67
2022/11/26 00:47:52;;;;;;;7.30;4.33;;;6.80;99.90;;;;;;4999780;28;20438;-68
2022/11/26 00:50:20;;;;;;;4.77;3.50;;;6.80;99.90;;;;;;5006215;28;21078;-67
2022/11/26 00:52:48;;;;;;;9.07;4.20;;;6.90;99.90;;;;;;4998508;28;20199;-68
2022/11/26 00:55:21;;;;;;;3.97;2.80;;;6.90;99.90;;;;;;4985297;28;20460;-68
2022/11/26 00:57:46;;;;;;;5.77;2.90;;;6.80;99.90;;;;;;4987106;28;20442;-68
2022/11/26 01:00:22;;;;;;;6.13;3.20;;;6.70;99.90;;;;;;4991242;28;20431;-68
2022/11/26 01:02:48;;;;;;;7.73;4.07;;;6.70;99.90;;;;;;4986726;28;20187;-67
2022/11/26 01:05:14;;;;;;;8.60;2.90;;;6.60;99.90;;;;;;4987188;28;20593;-67
2022/11/26 01:07:41;;;;;;;9.53;3.23;;;6.60;99.90;;;;;;4987299;28;20541;-67
2022/11/26 01:10:18;;;;;;;7.50;3.90;;;6.50;99.90;;;;;;4991285;28;20443;-68
2022/11/26 01:12:45;;;;;;;6.27;4.17;;;6.50;99.90;;;;;;4984977;28;20980;-67
2022/11/26 01:15:12;;;;;;;14.77;5.20;;;6.40;99.90;;;;;;4985200;28;20483;-67
2022/11/26 01:17:37;;;;;;;6.73;3.87;;;6.40;99.90;;;;;;4987338;28;20445;-66
2022/11/26 01:20:09;;;;;;;5.13;4.10;;;6.50;99.90;;;;;;4989245;28;20810;-66
2022/11/26 01:22:35;;;;;;;9.43;6.20;;;6.50;99.90;;;;;;4986876;28;20208;-66
2022/11/26 01:25:00;;;;;;;7.40;3.63;;;6.60;99.90;;;;;;4985293;28;20443;-66
2022/11/26 01:27:26;;;;;;;8.67;4.60;;;6.50;99.90;;;;;;4991976;28;20194;-66
2022/11/26 01:29:51;;;;;;;12.53;4.73;;;6.50;99.90;;;;;;4990224;28;20184;-67
2022/11/26 01:32:17;;;;;;;6.57;4.50;;;6.50;99.90;;;;;;4991656;28;20338;-67
2022/11/26 01:34:42;;;;;;;10.10;5.30;;;6.50;99.90;;;;;;4985856;28;20211;-67
2022/11/26 01:37:13;;;;;;;14.77;5.73;;;6.50;99.90;;;;;;4988551;28;20187;-67
2022/11/26 01:39:38;;;;;;;7.27;4.00;;;6.50;99.90;;;;;;4992602;28;20254;-67
2022/11/26 01:42:33;;;;;;;10.27;4.93;;;6.50;99.90;;;;;;4996959;28;20529;-66
2022/11/26 01:44:58;;;;;;;11.93;4.53;;;6.40;99.90;;;;;;4991630;28;20175;-67
2022/11/26 01:47:27;;;;;;;10.17;4.13;;;6.40;99.90;;;;;;4986008;28;20525;-67
2022/11/26 01:50:29;;;;;;;12.63;4.93;;;6.40;99.90;;;;;;4986935;28;20176;-66
2022/11/26 01:53:12;;;;;;;5.20;3.87;;;6.40;99.90;;;;;;4991549;28;20462;-66
2022/11/26 01:55:51;;;;;;;13.60;4.73;;;6.40;99.90;;;;;;4990766;28;20466;-66
2022/11/26 01:58:22;;;;;;;11.67;3.87;;;6.40;99.90;;;;;;4984969;28;20430;-66
2022/11/26 02:00:49;;;;;;;7.70;4.10;;;6.40;99.90;;;;;;4986927;28;20511;-67
2022/11/26 02:03:16;;;;;;;10.17;4.67;;;6.40;99.90;;;;;;4992120;28;20426;-66
2022/11/26 02:05:50;;;;;;;9.20;4.67;;;6.40;99.90;;;;;;4989299;28;20439;-66
2022/11/26 02:08:17;;;;;;;8.00;4.67;;;6.40;99.90;;;;;;4988490;28;20521;-66
2022/11/26 02:10:43;;;;;;;8.30;4.47;;;6.40;99.90;;;;;;4990244;28;20493;-66
2022/11/26 02:13:08;;;;;;;8.50;5.17;;;6.40;99.90;;;;;;4989859;28;20470;-67
2022/11/26 02:15:58;;;;;;;15.00;4.20;;;6.40;99.90;;;;;;4987910;28;20208;-66
2022/11/26 02:18:30;;;;;;;6.73;4.87;;;6.40;99.90;;;;;;4988073;28;20226;-66
2022/11/26 02:21:03;;;;;;;9.27;4.53;;;6.40;99.90;;;;;;4988826;28;20463;-66
2022/11/26 02:23:48;;;;;;;6.97;4.80;;;6.50;99.90;;;;;;4989499;28;20727;-66
2022/11/26 02:26:22;;;;;;;6.83;4.93;;;6.40;99.90;;;;;;4986209;28;20441;-66
2022/11/26 02:29:28;;;;;;;7.73;5.60;;;6.40;99.90;;;;;;4991378;28;20425;-66
2022/11/26 02:31:59;;;;;;;8.40;4.20;;;6.40;99.90;;;;;;4970247;28;20532;-66
2022/11/26 02:34:36;;;;;;;10.33;4.23;;;6.40;99.90;;;;;;4997696;28;20481;-66
2022/11/26 02:37:26;;;;;;;5.97;4.67;;;6.40;99.90;;;;;;4998233;28;20898;-66
2022/11/26 02:39:52;;;;;;;8.93;4.60;;;6.40;99.90;;;;;;5008416;28;20430;-66
2022/11/26 02:42:30;;;;;;;11.10;4.70;;;6.40;99.90;;;;;;4994707;28;20461;-66
2022/11/26 02:45:01;;;;;;;9.43;4.60;;;6.40;99.90;;;;;;4987680;28;20227;-66
2022/11/26 02:47:28;;;;;;;12.27;4.80;;;6.40;99.90;;;;;;5003301;28;20446;-66
2022/11/26 02:49:55;;;;;;;8.50;4.73;;;6.40;99.90;;;;;;4991103;28;20442;-66
2022/11/26 02:52:23;;;;;;;12.00;4.80;;;6.40;99.90;;;;;;4991145;28;20462;-66
2022/11/26 02:54:51;;;;;;;9.07;5.17;;;6.40;99.90;;;;;;4993706;28;20462;-66
2022/11/26 02:57:22;;;;;;;6.53;4.33;;;6.40;99.90;;;;;;4993971;28;20435;-66
2022/11/26 02:59:48;;;;;;;7.90;5.47;;;6.40;99.90;;;;;;4979761;28;20426;-65
2022/11/26 03:02:26;;;;;;;13.83;5.20;;;6.40;99.90;;;;;;4984336;28;20458;-66
2022/11/26 03:04:55;;;;;;;7.13;4.97;;;6.40;99.90;;;;;;4981172;28;20650;-66
2022/11/26 03:07:21;;;;;;;6.53;4.40;;;6.40;99.90;;;;;;4988292;28;20570;-65
2022/11/26 03:09:54;;;;;;;9.77;5.43;;;6.50;99.90;;;;;;4989367;28;20815;-66
2022/11/26 03:12:20;;;;;;;13.33;4.80;;;6.50;99.90;;;;;;4990448;28;20482;-67
2022/11/26 03:14:46;;;;;;;5.30;4.63;;;6.50;99.90;;;;;;4988469;28;20463;-66
2022/11/26 03:17:12;;;;;;;6.87;5.03;;;6.60;99.90;;;;;;4987731;28;20445;-66
2022/11/26 03:19:37;;;;;;;4.90;4.10;;;6.60;99.90;;;;;;4995304;28;20175;-66
2022/11/26 03:22:03;;;;;;;6.57;4.30;;;6.60;99.90;;;;;;5007238;28;20194;-66
2022/11/26 03:24:29;;;;;;;11.77;5.50;;;6.50;99.90;;;;;;4993106;28;20199;-66
2022/11/26 03:26:55;;;;;;;9.83;4.63;;;6.50;99.90;;;;;;4993528;28;20793;-66
2022/11/26 03:29:21;;;;;;;13.53;4.63;;;6.50;99.90;;;;;;4997180;28;20492;-66
2022/11/26 03:31:46;;;;;;;7.63;4.23;;;6.40;99.90;;;;;;4995880;28;20214;-66
2022/11/26 03:34:12;;;;;;;8.90;5.60;;;6.40;99.90;;;;;;4995857;28;20207;-66
2022/11/26 03:36:37;;;;;;;7.50;4.10;;;6.30;99.90;;;;;;5004738;28;20675;-66
2022/11/26 03:39:03;;;;;;;5.70;5.03;;;6.30;99.90;;;;;;5002378;28;20248;-66
2022/11/26 03:41:28;;;;;;;7.47;4.60;;;6.20;99.90;;;;;;4996151;28;20231;-66
2022/11/26 03:43:54;;;;;;;8.13;4.67;;;6.20;99.90;;;;;;5000874;28;20179;-66
2022/11/26 03:46:19;;;;;;;7.30;4.73;;;6.10;99.90;;;;;;5007127;28;20571;-66
2022/11/26 03:48:45;;;;;;;7.23;4.50;;;6.10;99.90;;;;;;5000501;28;20182;-67
2022/11/26 03:51:11;;;;;;;17.10;5.10;;;6.00;99.90;;;;;;4996748;28;20280;-66
2022/11/26 03:53:36;;;;;;;9.33;4.37;;;6.00;99.90;;;;;;4998764;28;20180;-66
2022/11/26 03:56:02;;;;;;;6.97;4.60;;;6.00;99.90;;;;;;4995060;28;20179;-66
2022/11/26 03:58:27;;;;;;;14.13;6.00;;;6.00;99.90;;;;;;4998592;28;20237;-66
2022/11/26 04:00:53;;;;;;;6.93;4.60;;;6.00;99.90;;;;;;4998121;28;20643;-67
2022/11/26 04:03:18;;;;;;;8.93;4.13;;;6.00;99.90;;;;;;4998903;28;20187;-66
2022/11/26 04:05:44;;;;;;;9.50;5.10;;;6.00;99.90;;;;;;4998617;28;20183;-66
2022/11/26 04:08:09;;;;;;;12.70;5.50;;;5.90;99.90;;;;;;5000378;28;20207;-67
2022/11/26 04:10:35;;;;;;;8.67;4.97;;;5.90;99.90;;;;;;5007040;28;20178;-66
2022/11/26 04:13:00;;;;;;;10.67;4.87;;;5.90;99.90;;;;;;5002037;28;20210;-66
2022/11/26 04:15:26;;;;;;;8.80;5.27;;;5.90;99.90;;;;;;4997663;28;20211;-66
2022/11/26 04:17:51;;;;;;;12.37;4.30;;;5.90;99.90;;;;;;5003173;28;20180;-66
2022/11/26 04:20:17;;;;;;;4.60;4.20;;;5.90;99.90;;;;;;5007249;28;20175;-66
2022/11/26 04:22:43;;;;;;;7.90;5.00;;;5.90;99.90;;;;;;4987337;28;20199;-66
2022/11/26 04:25:08;;;;;;;14.03;4.00;;;5.90;99.90;;;;;;4990775;28;20294;-66
2022/11/26 04:27:34;;;;;;;5.50;4.40;;;5.90;99.90;;;;;;4991626;28;20188;-66
2022/11/26 04:30:00;;;;;;;7.17;4.80;;;5.80;99.90;;;;;;4990705;28;20265;-66
2022/11/26 04:32:25;;;;;;;7.57;4.27;;;5.90;99.90;;;;;;4998670;28;20549;-67
2022/11/26 04:34:51;;;;;;;11.13;5.47;;;5.80;99.90;;;;;;4998981;28;20202;-66
2022/11/26 04:37:16;;;;;;;10.97;4.77;;;5.80;99.90;;;;;;5001073;28;20171;-66
2022/11/26 04:39:42;;;;;;;10.07;5.00;;;5.70;99.90;;;;;;5006379;28;20183;-66
2022/11/26 04:42:07;;;;;;;9.50;5.70;;;5.60;99.90;;;;;;5005495;28;20195;-67
2022/11/26 04:44:33;;;;;;;13.77;5.00;;;5.50;99.90;;;;;;5000864;28;20677;-66
2022/11/26 04:46:58;;;;;;;14.50;5.00;;;5.50;99.90;;;;;;5007221;28;20195;-67
2022/11/26 04:49:24;;;;;;;8.40;4.30;;;5.50;99.90;;;;;;5005694;28;20178;-66
2022/11/26 04:51:50;;;;;;;12.80;5.27;;;5.50;99.90;;;;;;4998767;28;20206;-66
2022/11/26 04:54:15;;;;;;;11.30;5.17;;;5.50;99.90;;;;;;5001440;28;20251;-66
2022/11/26 04:56:41;;;;;;;8.07;5.50;;;5.40;99.90;;;;;;4990973;28;20242;-66
2022/11/26 04:59:06;;;;;;;13.03;6.80;;;5.40;99.90;;;;;;4991890;28;20255;-66
2022/11/26 05:01:32;;;;;;;9.90;7.93;;;5.30;99.90;;;;;;4985673;28;20203;-66
2022/11/26 05:03:57;;;;;;;11.00;5.33;;;5.30;99.90;;;;;;4983390;28;20180;-66
2022/11/26 05:06:23;;;;;;;10.20;5.50;;;5.20;99.90;;;;;;4988283;28;20180;-66
2022/11/26 05:08:48;;;;;;;7.83;4.87;;;5.20;99.90;;;;;;4993458;28;20214;-66
2022/11/26 05:11:14;;;;;;;11.03;7.13;;;5.10;99.90;;;;;;4996762;28;20278;-66
2022/11/26 05:13:39;;;;;;;9.07;5.47;;;5.10;99.90;;;;;;5004424;28;20629;-66
2022/11/26 05:16:05;;;;;;;11.73;5.80;;;5.00;99.90;;;;;;4995923;28;20653;-66
2022/11/26 05:18:31;;;;;;;12.17;6.10;;;5.00;99.90;;;;;;5001423;28;20952;-66
2022/11/26 05:20:56;;;;;;;7.63;5.80;;;5.00;99.90;;;;;;5003564;28;20259;-66
2022/11/26 05:23:22;;;;;;;7.90;5.13;;;4.90;99.90;;;;;;4997063;28;20230;-66
2022/11/26 05:25:49;;;;;;;14.63;6.23;;;4.90;99.90;;;;;;4997902;28;20616;-66
2022/11/26 05:28:15;;;;;;;10.30;5.43;;;4.90;99.90;;;;;;4992641;28;20238;-66
2022/11/26 05:30:40;;;;;;;5.93;4.70;;;5.00;99.90;;;;;;5001839;28;20453;-66
2022/11/26 05:33:06;;;;;;;10.47;5.17;;;5.00;99.90;;;;;;4997077;28;20204;-67
2022/11/26 05:35:31;;;;;;;12.20;6.20;;;5.10;99.90;;;;;;4996249;28;20582;-66
2022/11/26 05:37:57;;;;;;;18.93;6.80;;;5.20;99.90;;;;;;4992909;28;20244;-66
2022/11/26 05:40:22;;;;;;;15.27;5.30;;;5.10;99.90;;;;;;4991943;28;20208;-66
2022/11/26 05:42:48;;;;;;;12.80;6.40;;;5.10;99.90;;;;;;5000511;28;20226;-66
2022/11/26 05:45:15;;;;;;;12.10;5.53;;;5.10;99.90;;;;;;5000388;28;20670;-66
2022/11/26 05:47:41;;;;;;;12.30;6.73;;;5.00;99.90;;;;;;5004102;28;20246;-66
2022/11/26 05:50:07;;;;;;;15.33;9.17;;;5.00;99.90;;;;;;5002670;28;20425;-66
2022/11/26 05:52:32;;;;;;;12.70;8.90;;;5.00;99.90;;;;;;4995994;28;20212;-65
2022/11/26 05:54:58;;;;;;;15.60;9.87;;;5.00;99.90;;;;;;4996325;28;20978;-66
2022/11/26 05:57:23;;;;;;;13.50;7.60;;;4.90;99.90;;;;;;5002651;28;20664;-66
2022/11/26 05:59:49;;;;;;;8.50;5.23;;;4.90;99.90;;;;;;4997750;28;20184;-66
2022/11/26 06:02:15;;;;;;;12.40;6.90;;;4.90;99.90;;;;;;4994174;28;20191;-66
2022/11/26 06:04:42;;;;;;;9.30;7.50;;;4.90;99.90;;;;;;5004351;28;20183;-66
2022/11/26 06:07:07;;;;;;;13.00;7.97;;;4.90;99.90;;;;;;5005650;28;20179;-66
2022/11/26 06:09:33;;;;;;;15.63;7.33;;;4.80;99.90;;;;;;4996434;28;20453;-66
2022/11/26 06:11:59;;;;;;;10.90;6.37;;;4.80;99.90;;;;;;4993492;28;20502;-67
2022/11/26 06:14:24;;;;;;;21.10;6.90;;;4.80;99.90;;;;;;4995584;28;20319;-67
2022/11/26 06:16:50;;;;;;;8.63;6.43;;;4.70;99.90;;;;;;4997689;28;20176;-67
2022/11/26 06:19:15;;;;;;;9.90;8.27;;;4.70;99.90;;;;;;4990843;28;20203;-66
2022/11/26 06:21:41;;;;;;;10.70;6.20;;;4.60;99.90;;;;;;4991031;28;20207;-65
2022/11/26 06:24:06;;;;;;;10.80;6.57;;;4.60;99.90;;;;;;4990874;28;20535;-66
2022/11/26 06:26:32;;;;;;;7.90;4.93;;;4.60;99.90;;;;;;4988424;28;20198;-66
2022/11/26 06:28:57;;;;;;;8.30;5.70;;;4.60;99.90;;;;;;4991805;28;20215;-66
2022/11/26 06:31:23;;;;;;;7.47;5.93;;;4.50;99.90;;;;;;4989638;28;20250;-66
2022/11/26 06:33:53;;;;;;;13.37;7.90;;;4.40;99.90;;;;;;4985114;28;20662;-66
2022/11/26 06:36:18;;;;;;;8.10;7.33;;;4.40;99.90;;;;;;4988740;28;20246;-66
2022/11/26 06:38:44;;;;;;;7.40;6.00;;;4.40;99.90;;;;;;4990392;28;20467;-66
2022/11/26 06:41:09;;;;;;;10.70;6.20;;;4.40;99.90;;;;;;4990954;28;20615;-66
2022/11/26 06:43:35;;;;;;;11.60;6.20;;;4.40;99.90;;;;;;4990221;28;20180;-66
2022/11/26 06:46:06;;;;;;;15.00;9.60;;;4.30;99.90;;;;;;4987437;28;20212;-66
2022/11/26 06:48:33;;;;;;;11.03;7.47;;;4.30;99.90;;;;;;4989610;28;20845;-66
2022/11/26 06:51:20;;;;;;;12.50;7.57;;;4.20;99.90;;;;;;4985683;28;20810;-67
2022/11/26 06:53:47;;;;;;;11.33;7.13;;;4.20;99.90;;;;;;4992250;28;20834;-66
2022/11/26 06:56:15;;;;;;;7.60;6.60;;;4.20;99.90;;;;;;4992729;28;20438;-66
2022/11/26 06:58:41;;;;;;;12.33;7.47;;;4.20;99.90;;;;;;4983739;28;20443;-66
2022/11/26 07:01:13;;;;;;;12.83;7.33;;;4.20;99.90;;;;;;4992417;28;20493;-67
2022/11/26 07:03:39;;;;;;;10.43;7.83;;;4.30;99.90;;;;;;4993997;28;20186;-66
2022/11/26 07:06:13;;;;;;;8.97;7.67;;;4.30;99.90;;;;;;5001826;28;20474;-66
2022/11/26 07:08:39;;;;;;;12.60;7.30;;;4.30;99.90;;;;;;4987751;28;20186;-66
2022/11/26 07:11:04;;;;;;;11.20;8.03;;;4.30;99.90;;;;;;5003136;28;20522;-66
2022/11/26 07:13:30;;;;;;;10.00;7.00;;;4.40;99.90;;;;;;4995501;28;20864;-67
2022/11/26 07:16:01;;;;;;;13.17;8.13;;;4.40;99.90;;;;;;4987162;28;20199;-67
2022/11/26 07:18:27;;;;;;;11.13;8.60;;;4.40;99.90;;;;;;4993627;28;20182;-67
2022/11/26 07:20:53;;;;;;;12.10;8.60;;;4.50;99.90;;;;;;4985323;28;20455;-67
2022/11/26 07:23:19;;;;;;;13.80;9.17;;;4.50;99.90;;;;;;4992600;28;20890;-67
2022/11/26 07:25:44;;;;;;;17.23;8.30;;;4.50;99.90;;;;;;4985963;28;20194;-67
2022/11/26 07:28:11;;;;;;;12.93;7.80;;;4.60;99.90;;;;;;4984676;28;20194;-67
2022/11/26 07:30:36;;;;;;;8.07;7.27;;;4.60;99.90;;;;;;4990321;28;20191;-67
2022/11/26 07:33:02;;;;;;;9.23;7.07;;;4.70;99.90;;;;;;4994497;28;21078;-66
2022/11/26 07:35:27;;;;;;;20.27;11.50;;;5.00;99.90;;;;;;5003051;28;20703;-67
2022/11/26 07:37:53;;;;;;;20.27;10.80;;;5.40;99.90;;;;;;4996204;28;20969;-67
2022/11/26 07:40:19;;;;;;;9.63;8.37;;;5.90;99.90;;;;;;5003548;28;20207;-67
2022/11/26 07:42:44;;;;;;;9.83;6.83;;;6.40;99.90;;;;;;4990886;28;20199;-67
2022/11/26 07:45:10;;;;;;;8.00;6.17;;;6.80;99.90;;;;;;4995075;28;20187;-67
2022/11/26 07:47:36;;;;;;;6.23;5.43;;;7.40;99.90;;;;;;5005993;28;20187;-67
2022/11/26 07:50:02;;;;;;;10.83;5.53;;;7.70;99.90;;;;;;4991612;28;20195;-67
2022/11/26 07:52:28;;;;;;;12.30;8.37;;;7.80;99.90;;;;;;5005405;28;20234;-68
2022/11/26 07:54:53;;;;;;;11.70;6.60;;;7.90;99.90;;;;;;5000650;28;20470;-67
2022/11/26 07:57:21;;;;;;;17.47;7.00;;;8.60;99.90;;;;;;4995406;28;20566;-67
2022/11/26 07:59:46;;;;;;;13.80;7.47;;;9.00;99.90;;;;;;5001520;28;20183;-67
2022/11/26 08:02:13;;;;;;;19.33;12.30;;;8.90;99.90;;;;;;5001502;28;20467;-66
2022/11/26 08:04:39;;;;;;;17.43;15.03;;;8.60;99.90;;;;;;4998642;28;20262;-67
2022/11/26 08:07:05;;;;;;;13.40;8.50;;;8.00;99.90;;;;;;5003080;28;20536;-67
2022/11/26 08:09:30;;;;;;;15.37;8.50;;;7.70;99.90;;;;;;4997572;28;20564;-67
2022/11/26 08:11:55;;;;;;;16.17;9.47;;;7.40;99.90;;;;;;5005639;28;20219;-67
2022/11/26 08:14:21;;;;;;;8.40;6.87;;;7.20;99.90;;;;;;5004356;28;20222;-67
2022/11/26 08:16:47;;;;;;;9.77;8.57;;;7.00;99.90;;;;;;5003795;28;20175;-66
2022/11/26 08:19:12;;;;;;;13.80;7.60;;;6.80;99.90;;;;;;5002569;28;20179;-66
2022/11/26 08:21:39;;;;;;;8.10;7.07;;;6.70;99.90;;;;;;5002058;28;20739;-67
2022/11/26 08:24:06;;;;;;;10.37;7.77;;;6.70;99.90;;;;;;5000318;28;20592;-67
2022/11/26 08:26:31;;;;;;;9.53;7.57;;;6.60;99.90;;;;;;4989009;28;20439;-66
2022/11/26 08:28:58;;;;;;;10.33;6.90;;;6.60;99.90;;;;;;4990902;28;20830;-67
2022/11/26 08:31:26;;;;;;;13.30;9.00;;;6.60;99.90;;;;;;4990776;28;20562;-67
2022/11/26 08:33:54;;;;;;;9.97;7.70;;;6.60;99.90;;;;;;4988556;28;20455;-68
2022/11/26 08:36:19;;;;;;;8.57;7.63;;;6.60;99.90;;;;;;4990353;28;20434;-67
2022/11/26 08:38:45;;;;;;;10.73;7.93;;;6.50;99.90;;;;;;4992249;28;20497;-67
2022/11/26 08:41:12;;;;;;;9.50;8.60;;;6.60;99.90;;;;;;4991936;28;20207;-67
2022/11/26 08:43:38;;;;;;;13.37;7.97;;;6.70;99.90;;;;;;4987806;28;20184;-67
2022/11/26 08:46:05;;;;;;;10.80;8.50;;;6.70;99.90;;;;;;4991063;28;20439;-67
2022/11/26 08:48:31;;;;;;;11.73;7.73;;;6.80;99.90;;;;;;4992160;28;20964;-68
2022/11/26 08:50:58;;;;;;;11.60;8.47;;;6.80;99.90;;;;;;4988895;28;20446;-68
2022/11/26 08:53:23;;;;;;;12.67;9.20;;;7.00;99.90;;;;;;4988565;28;20202;-67
2022/11/26 08:55:49;;;;;;;12.33;8.57;;;7.30;99.90;;;;;;4986453;28;20459;-67
2022/11/26 08:58:14;;;;;;;10.80;8.03;;;7.50;99.90;;;;;;4992136;28;20184;-68
2022/11/26 09:00:40;;;;;;;11.20;8.20;;;7.60;99.90;;;;;;4989986;28;20205;-67
2022/11/26 09:03:06;;;;;;;9.00;6.73;;;7.80;99.90;;;;;;4993111;28;20236;-67
2022/11/26 09:05:32;;;;;;;8.67;7.87;;;8.70;99.90;;;;;;4989155;28;20266;-68
2022/11/26 09:07:57;;;;;;;9.40;7.83;;;10.80;99.90;;;;;;4992176;28;20561;-68
2022/11/26 09:10:23;;;;;;;29.00;26.17;;;13.10;99.90;;;;;;4991455;28;20182;-67
2022/11/26 09:12:49;;;;;;;12.20;11.00;;;14.80;99.90;;;;;;4992650;28;20215;-67
2022/11/26 09:15:14;;;;;;;9.87;9.07;;;16.50;99.90;;;;;;4984911;28;20208;-67
2022/11/26 09:17:40;;;;;;;9.80;8.93;;;18.30;99.90;;;;;;4990177;28;20266;-68
2022/11/26 09:20:06;;;;;;;7.60;6.90;;;19.10;99.90;;;;;;4991381;28;20180;-67
2022/11/26 09:22:33;;;;;;;8.97;7.77;;;19.10;99.10;;;;;;4990125;28;20215;-68
2022/11/26 09:24:59;;;;;;;8.93;8.13;;;18.50;99.40;;;;;;4998041;28;20803;-68
2022/11/26 09:27:24;;;;;;;7.57;6.20;;;17.80;99.90;;;;;;4991495;28;20446;-68
2022/11/26 09:29:50;;;;;;;8.37;7.10;;;16.50;99.90;;;;;;4986859;28;20592;-67
2022/11/26 09:32:15;;;;;;;8.60;7.90;;;15.60;99.90;;;;;;4984980;28;20200;-68
2022/11/26 09:34:41;;;;;;;10.20;7.53;;;14.60;99.90;;;;;;4991549;28;20211;-67
2022/11/26 09:37:07;;;;;;;10.07;9.10;;;14.00;99.90;;;;;;4998486;28;20179;-67
2022/11/26 09:39:32;;;;;;;10.07;9.17;;;13.40;99.90;;;;;;4992612;28;20195;-68
2022/11/26 09:42:05;;;;;;;9.67;8.47;;;12.60;99.90;;;;;;4999444;28;20223;-67
2022/11/26 09:44:41;;;;;;;7.47;6.87;;;12.10;99.90;;;;;;5000421;28;20183;-67
2022/11/26 09:47:09;;;;;;;8.80;7.33;;;12.40;99.90;;;;;;4994892;28;20438;-68
2022/11/26 09:50:07;;;;;;;9.60;7.50;;;12.80;99.90;;;;;;4990788;28;20488;-67
2022/11/26 09:52:38;;;;;;;7.43;6.73;;;13.60;99.90;;;;;;4988748;28;20465;-68
2022/11/26 09:55:16;;;;;;;7.37;6.67;;;15.30;99.90;;;;;;4998951;28;20548;-67
2022/11/26 09:57:47;;;;;;;9.93;8.03;;;16.90;99.90;;;;;;4991833;28;20794;-68
2022/11/26 10:00:24;;;;;;;10.40;6.50;;;18.60;99.90;;;;;;4992291;28;20433;-68
2022/11/26 10:02:54;;;;;;;7.20;6.40;;;20.20;97.80;;;;;;4987684;28;20452;-68
2022/11/26 10:05:23;;;;;;;7.97;6.43;;;21.90;92.50;;;;;;4985789;28;20442;-68
2022/11/26 10:08:01;;;;;;;7.47;5.40;;;22.70;87.80;;;;;;4982155;28;20450;-68
2022/11/26 10:10:49;;;;;;;7.17;5.47;;;23.80;79.60;;;;;;4982597;28;20516;-68
2022/11/26 10:13:39;;;;;;;7.47;6.73;;;25.30;69.30;;;;;;4985012;28;20451;-68
2022/11/26 10:16:17;;;;;;;10.73;8.50;;;24.90;68.40;;;;;;4989734;28;20454;-66
2022/11/26 10:19:01;;;;;;;10.63;7.13;;;26.40;61.40;;;;;;4989535;28;20579;-66
2022/11/26 10:21:35;;;;;;;10.37;7.40;;;26.20;60.70;;;;;;4989334;28;20844;-66
2022/11/26 10:24:08;;;;;;;9.20;7.77;;;27.10;56.70;;;;;;4984638;28;20454;-66
2022/11/26 10:26:38;;;;;;;8.90;7.10;;;27.10;55.30;;;;;;4988993;28;20932;-66
2022/11/26 10:29:25;;;;;;;6.83;6.10;;;27.00;55.80;;;;;;4988679;28;20800;-66
2022/11/26 10:31:57;;;;;;;6.30;5.80;;;28.00;53.60;;;;;;4989829;28;20795;-66
2022/11/26 10:34:51;;;;;;;7.33;6.03;;;28.80;51.20;;;;;;4984951;28;20462;-66
2022/11/26 10:37:21;;;;;;;6.40;5.30;;;29.50;49.50;;;;;;4989271;28;20864;-66
2022/11/26 10:39:47;;;;;;;7.50;6.13;;;30.10;48.20;;;;;;4990178;28;20435;-66
2022/11/26 10:42:19;;;;;;;6.03;5.40;;;30.50;46.30;;;;;;4984927;28;20497;-66
2022/11/26 10:44:45;;;;;;;5.03;4.53;;;30.60;44.70;;;;;;4987045;28;20470;-66
2022/11/26 10:47:23;;;;;;;8.53;6.30;;;30.20;43.80;;;;;;4988908;28;21228;-66
2022/11/26 10:49:50;;;;;;;5.90;5.33;;;30.50;44.30;;;;;;4982560;28;20478;-66
2022/11/26 10:52:26;;;;;;;5.90;4.47;;;29.40;43.50;;;;;;4988358;28;20466;-66
2022/11/26 10:55:18;;;;;;;6.90;4.30;;;26.80;46.10;;;;;;4982040;28;20458;-68
2022/11/26 10:57:50;;;;;;;9.97;4.50;;;24.10;49.10;;;;;;4988886;28;20449;-68
2022/11/26 11:00:47;;;;;;;6.43;5.20;;;21.90;52.90;;;;;;4982315;28;20523;-68
2022/11/26 11:03:23;;;;;;;8.10;5.80;;;19.80;59.70;;;;;;4981105;28;20454;-68
2022/11/26 11:05:49;;;;;;;6.90;4.53;;;19.20;69.20;;;;;;4999401;28;20473;-69
2022/11/26 11:08:31;;;;;;;8.20;5.47;;;20.00;67.20;;;;;;4999668;28;20469;-69
2022/11/26 11:10:59;;;;;;;8.60;5.20;;;22.00;60.90;;;;;;4986875;28;20278;-68
2022/11/26 11:13:42;;;;;;;9.17;6.10;;;21.30;58.60;;;;;;4993058;28;20508;-69
2022/11/26 11:16:10;;;;;;;7.17;5.57;;;19.60;65.40;;;;;;4989080;28;20888;-67
2022/11/26 11:18:37;;;;;;;10.97;9.17;;;18.00;74.10;;;;;;4996275;28;20940;-68
2022/11/26 11:21:03;;;;;;;8.97;7.33;;;17.80;80.80;;;;;;4983613;28;20470;-68
2022/11/26 11:23:35;;;;;;;7.50;6.80;;;17.40;83.20;;;;;;4978794;28;20435;-67
2022/11/26 11:26:03;;;;;;;5.80;4.93;;;17.00;90.40;;;;;;4989901;28;20443;-68
2022/11/26 11:28:31;;;;;;;7.00;4.60;;;18.80;84.10;;;;;;4992214;28;20493;-68
2022/11/26 11:31:21;;;;;;;6.90;4.60;;;21.00;71.50;;;;;;4987832;28;20481;-69
2022/11/26 11:33:48;;;;;;;10.70;5.70;;;23.80;57.50;;;;;;4986114;28;20446;-71
2022/11/26 11:36:17;;;;;;;6.37;4.50;;;24.60;55.60;;;;;;4985768;28;20450;-68
2022/11/26 11:39:00;;;;;;;9.77;6.10;;;25.10;52.60;;;;;;4989375;28;20443;-68
2022/11/26 11:41:46;;;;;;;5.87;5.23;;;26.00;51.40;;;;;;4991881;28;21069;-68
2022/11/26 11:44:34;;;;;;;7.40;5.37;;;28.00;48.70;;;;;;4986507;28;20471;-68
2022/11/26 11:47:12;;;;;;;6.10;5.10;;;28.90;46.20;;;;;;4987421;28;20481;-68
2022/11/26 11:50:00;;;;;;;8.90;5.30;;;29.70;45.10;;;;;;4991799;28;20446;-68
2022/11/26 11:53:15;;;;;;;6.03;5.43;;;29.50;43.00;;;;;;4984790;28;20485;-68
2022/11/26 11:56:11;;;;;;;6.17;5.33;;;28.00;44.80;;;;;;4975703;28;20474;-68
2022/11/26 11:58:58;;;;;;;8.67;5.37;;;27.40;45.50;;;;;;4991648;28;20434;-68
2022/11/26 12:02:01;;;;;;;5.80;4.73;;;27.40;46.50;;;;;;4989869;28;20489;-68
2022/11/26 12:05:03;;;;;;;7.70;5.20;;;26.00;46.10;;;;;;4987943;28;20962;-68
2022/11/26 12:07:46;;;;;;;5.80;4.30;;;25.10;47.90;;;;;;4982977;28;20442;-68
2022/11/26 12:10:21;;;;;;;5.87;4.63;;;26.30;47.20;;;;;;4986647;28;20439;-68
2022/11/26 12:12:57;;;;;;;8.23;5.33;;;26.80;45.70;;;;;;4995249;28;20472;-68
2022/11/26 12:15:34;;;;;;;5.73;4.83;;;26.10;46.40;;;;;;4985656;28;20473;-68
2022/11/26 12:18:18;;;;;;;8.43;6.20;;;22.80;50.80;;;;;;4991897;28;20573;-68
2022/11/26 12:20:52;;;;;;;8.83;5.90;;;20.00;57.40;;;;;;4981490;28;20569;-68
2022/11/26 12:23:30;;;;;;;8.40;5.80;;;18.30;68.50;;;;;;4988773;28;20431;-68
2022/11/26 12:26:05;;;;;;;8.93;5.60;;;17.30;77.10;;;;;;4982547;28;20430;-68
2022/11/26 12:28:58;;;;;;;7.90;6.00;;;16.40;85.60;;;;;;4989715;28;20437;-68
2022/11/26 12:31:24;;;;;;;6.43;5.70;;;15.80;90.30;;;;;;4985529;28;20559;-68
2022/11/26 12:33:57;;;;;;;7.97;5.43;;;15.30;93.30;;;;;;4996459;28;20508;-68
2022/11/26 12:36:37;;;;;;;5.93;4.67;;;14.70;95.80;;;;;;4989570;28;20262;-69
2022/11/26 12:39:17;;;;;;;7.87;5.40;;;14.10;99.90;;;;;;4990252;28;20443;-67
2022/11/26 12:41:54;;;;;;;5.47;4.43;;;14.20;99.90;;;;;;4990280;28;20812;-67
2022/11/26 12:44:36;;;;;;;6.23;5.17;;;14.00;99.90;;;;;;4992714;28;20528;-67
2022/11/26 12:47:29;;;;;;;8.67;4.83;;;13.70;99.90;;;;;;4985850;28;20840;-67
2022/11/26 12:50:01;;;;;;;13.07;5.80;;;13.40;99.90;;;;;;4991499;28;20439;-67
2022/11/26 12:52:57;;;;;;;6.17;4.40;;;13.20;99.90;;;;;;4989549;28;20467;-68
2022/11/26 12:55:48;;;;;;;10.17;7.60;;;12.40;99.90;;;;;;4976426;28;20996;-67
2022/11/26 12:58:22;;;;;;;12.80;9.20;;;12.20;99.90;;;;;;4991665;28;20431;-68
2022/11/26 13:00:52;;;;;;;11.80;8.80;;;12.10;99.90;;;;;;4984650;28;20521;-67
2022/11/26 13:03:26;;;;;;;10.10;5.50;;;12.00;99.90;;;;;;4991589;28;20442;-67
2022/11/26 13:06:02;;;;;;;8.60;5.50;;;12.00;99.90;;;;;;4990699;28;20943;-68